sensor_id;sensor_type;location;lat;lon;timestamp;pressure;altitude;pressure_sealevel;temperature;humidity
74544;BME280;63016;55.030;38.710;2022-12-18T00:00:42;99239.09;;;0.66;68.82
74544;BME280;63016;55.030;38.710;2022-12-18T00:03:07;99251.84;;;0.68;68.99
74544;BME280;63016;55.030;38.710;2022-12-18T00:05:33;99254.50;;;0.66;68.93
74544;BME280;63016;55.030;38.710;2022-12-18T00:07:58;99258.59;;;0.69;69.30
74544;BME280;63016;55.030;38.710;2022-12-18T00:10:23;99248.31;;;0.69;69.22
74544;BME280;63016;55.030;38.710;2022-12-18T00:12:49;99236.19;;;0.71;68.74
74544;BME280;63016;55.030;38.710;2022-12-18T00:15:14;99232.78;;;0.70;69.12
74544;BME280;63016;55.030;38.710;2022-12-18T00:17:39;99225.09;;;0.70;68.72
74544;BME280;63016;55.030;38.710;2022-12-18T00:20:05;99221.59;;;0.71;69.23
74544;BME280;63016;55.030;38.710;2022-12-18T00:22:30;99210.38;;;0.72;68.88
74544;BME280;63016;55.030;38.710;2022-12-18T00:24:56;99201.97;;;0.70;68.58
74544;BME280;63016;55.030;38.710;2022-12-18T00:27:21;99182.38;;;0.69;68.67
74544;BME280;63016;55.030;38.710;2022-12-18T00:29:47;99177.25;;;0.69;68.39
74544;BME280;63016;55.030;38.710;2022-12-18T00:32:12;99175.63;;;0.68;68.29
74544;BME280;63016;55.030;38.710;2022-12-18T00:34:38;99172.47;;;0.65;68.54
74544;BME280;63016;55.030;38.710;2022-12-18T00:37:03;99178.66;;;0.62;68.74
74544;BME280;63016;55.030;38.710;2022-12-18T00:39:28;99174.34;;;0.63;68.65
74544;BME280;63016;55.030;38.710;2022-12-18T00:41:54;99166.63;;;0.63;68.88
74544;BME280;63016;55.030;38.710;2022-12-18T00:44:38;99176.91;;;0.63;69.08
74544;BME280;63016;55.030;38.710;2022-12-18T00:47:03;99159.88;;;0.62;68.68
74544;BME280;63016;55.030;38.710;2022-12-18T00:49:28;99143.91;;;0.58;68.44
74544;BME280;63016;55.030;38.710;2022-12-18T00:51:54;99138.06;;;0.56;68.54
74544;BME280;63016;55.030;38.710;2022-12-18T00:54:19;99132.25;;;0.54;68.17
74544;BME280;63016;55.030;38.710;2022-12-18T00:56:44;99126.53;;;0.50;68.56
74544;BME280;63016;55.030;38.710;2022-12-18T00:59:10;99115.59;;;0.48;69.00
74544;BME280;63016;55.030;38.710;2022-12-18T01:01:35;99113.94;;;0.47;68.57
74544;BME280;63016;55.030;38.710;2022-12-18T01:04:01;99111.63;;;0.44;68.39
74544;BME280;63016;55.030;38.710;2022-12-18T01:06:27;99099.84;;;0.42;68.55
74544;BME280;63016;55.030;38.710;2022-12-18T01:08:52;99100.78;;;0.41;68.29
74544;BME280;63016;55.030;38.710;2022-12-18T01:11:18;99094.13;;;0.38;68.87
74544;BME280;63016;55.030;38.710;2022-12-18T01:13:44;99079.81;;;0.36;68.82
74544;BME280;63016;55.030;38.710;2022-12-18T01:16:13;99079.09;;;0.34;68.26
74544;BME280;63016;55.030;38.710;2022-12-18T01:18:38;99080.75;;;0.35;69.06
74544;BME280;63016;55.030;38.710;2022-12-18T01:21:07;99072.22;;;0.34;68.63
74544;BME280;63016;55.030;38.710;2022-12-18T01:23:33;99063.00;;;0.32;69.03
74544;BME280;63016;55.030;38.710;2022-12-18T01:26:03;99068.16;;;0.32;68.50
74544;BME280;63016;55.030;38.710;2022-12-18T01:28:28;99066.53;;;0.31;68.55
74544;BME280;63016;55.030;38.710;2022-12-18T01:30:53;99063.25;;;0.29;68.36
74544;BME280;63016;55.030;38.710;2022-12-18T01:33:19;99060.00;;;0.27;68.71
74544;BME280;63016;55.030;38.710;2022-12-18T01:35:44;99068.50;;;0.27;68.83
74544;BME280;63016;55.030;38.710;2022-12-18T01:38:09;99055.81;;;0.25;68.79
74544;BME280;63016;55.030;38.710;2022-12-18T01:40:35;99053.47;;;0.22;68.44
74544;BME280;63016;55.030;38.710;2022-12-18T01:43:00;99048.59;;;0.19;68.41
74544;BME280;63016;55.030;38.710;2022-12-18T01:45:29;99041.00;;;0.18;69.09
74544;BME280;63016;55.030;38.710;2022-12-18T01:47:56;99039.25;;;0.18;68.71
74544;BME280;63016;55.030;38.710;2022-12-18T01:50:32;99030.75;;;0.18;68.97
74544;BME280;63016;55.030;38.710;2022-12-18T01:53:17;99022.38;;;0.16;69.15
74544;BME280;63016;55.030;38.710;2022-12-18T01:55:46;99026.69;;;0.15;69.19
74544;BME280;63016;55.030;38.710;2022-12-18T01:58:12;99019.81;;;0.16;68.28
74544;BME280;63016;55.030;38.710;2022-12-18T02:00:38;99021.78;;;0.12;68.20
74544;BME280;63016;55.030;38.710;2022-12-18T02:03:03;99009.09;;;0.11;69.05
74544;BME280;63016;55.030;38.710;2022-12-18T02:08:16;99013.28;;;0.12;69.01
74544;BME280;63016;55.030;38.710;2022-12-18T02:11:00;99004.63;;;0.13;69.17
74544;BME280;63016;55.030;38.710;2022-12-18T02:13:36;99009.63;;;0.14;69.18
74544;BME280;63016;55.030;38.710;2022-12-18T02:18:48;99020.59;;;0.16;69.19
74544;BME280;63016;55.030;38.710;2022-12-18T02:26:27;99007.78;;;0.16;68.36
74544;BME280;63016;55.030;38.710;2022-12-18T02:28:56;99008.72;;;0.15;69.01
74544;BME280;63016;55.030;38.710;2022-12-18T02:31:25;99000.22;;;0.15;69.16
74544;BME280;63016;55.030;38.710;2022-12-18T02:33:52;99001.13;;;0.14;68.47
74544;BME280;63016;55.030;38.710;2022-12-18T02:36:22;99006.25;;;0.14;69.15
74544;BME280;63016;55.030;38.710;2022-12-18T02:38:49;98996.00;;;0.14;69.03
74544;BME280;63016;55.030;38.710;2022-12-18T02:41:17;98998.56;;;0.14;68.65
74544;BME280;63016;55.030;38.710;2022-12-18T02:43:47;98991.94;;;0.11;68.97
74544;BME280;63016;55.030;38.710;2022-12-18T02:48:53;98999.88;;;0.08;68.94
74544;BME280;63016;55.030;38.710;2022-12-18T02:54:16;98988.13;;;0.06;68.70
74544;BME280;63016;55.030;38.710;2022-12-18T02:56:47;98985.66;;;0.04;68.84
74544;BME280;63016;55.030;38.710;2022-12-18T02:59:17;98995.09;;;0.04;68.63
74544;BME280;63016;55.030;38.710;2022-12-18T03:04:43;98978.44;;;-0.02;68.73
74544;BME280;63016;55.030;38.710;2022-12-18T03:07:15;98984.66;;;-0.05;68.38
74544;BME280;63016;55.030;38.710;2022-12-18T03:09:43;98987.31;;;-0.06;68.09
74544;BME280;63016;55.030;38.710;2022-12-18T03:12:16;98981.59;;;-0.10;68.04
74544;BME280;63016;55.030;38.710;2022-12-18T03:14:55;98985.25;;;-0.12;68.51
74544;BME280;63016;55.030;38.710;2022-12-18T03:17:22;98994.81;;;-0.14;67.84
74544;BME280;63016;55.030;38.710;2022-12-18T03:19:48;98990.03;;;-0.19;68.26
74544;BME280;63016;55.030;38.710;2022-12-18T03:22:14;98982.44;;;-0.20;68.54
74544;BME280;63016;55.030;38.710;2022-12-18T03:24:40;98983.38;;;-0.21;67.99
74544;BME280;63016;55.030;38.710;2022-12-18T03:27:09;98982.81;;;-0.25;68.55
74544;BME280;63016;55.030;38.710;2022-12-18T03:29:38;98994.13;;;-0.28;68.58
74544;BME280;63016;55.030;38.710;2022-12-18T03:32:12;99002.75;;;-0.29;68.46
74544;BME280;63016;55.030;38.710;2022-12-18T03:34:40;99000.56;;;-0.33;67.99
74544;BME280;63016;55.030;38.710;2022-12-18T03:37:07;99004.97;;;-0.35;68.21
74544;BME280;63016;55.030;38.710;2022-12-18T03:39:33;99005.22;;;-0.38;68.62
74544;BME280;63016;55.030;38.710;2022-12-18T03:42:10;99010.56;;;-0.41;68.75
74544;BME280;63016;55.030;38.710;2022-12-18T03:44:40;99003.00;;;-0.43;68.65
74544;BME280;63016;55.030;38.710;2022-12-18T03:47:08;98997.16;;;-0.45;68.60
74544;BME280;63016;55.030;38.710;2022-12-18T03:49:35;99004.16;;;-0.47;68.18
74544;BME280;63016;55.030;38.710;2022-12-18T03:52:17;99000.88;;;-0.49;68.53
74544;BME280;63016;55.030;38.710;2022-12-18T03:54:46;98998.56;;;-0.52;68.36
74544;BME280;63016;55.030;38.710;2022-12-18T03:57:18;98994.41;;;-0.53;68.25
74544;BME280;63016;55.030;38.710;2022-12-18T03:59:45;98989.50;;;-0.56;68.60
74544;BME280;63016;55.030;38.710;2022-12-18T04:02:11;98996.38;;;-0.57;67.59
74544;BME280;63016;55.030;38.710;2022-12-18T04:04:36;98989.03;;;-0.61;68.20
74544;BME280;63016;55.030;38.710;2022-12-18T04:07:03;99000.31;;;-0.64;68.11
74544;BME280;63016;55.030;38.710;2022-12-18T04:09:30;99005.69;;;-0.67;68.02
74544;BME280;63016;55.030;38.710;2022-12-18T04:11:56;99011.84;;;-0.69;67.90
74544;BME280;63016;55.030;38.710;2022-12-18T04:14:21;99018.03;;;-0.72;68.13
74544;BME280;63016;55.030;38.710;2022-12-18T04:16:46;99017.44;;;-0.75;67.45
74544;BME280;63016;55.030;38.710;2022-12-18T04:19:14;99021.84;;;-0.78;67.93
74544;BME280;63016;55.030;38.710;2022-12-18T04:21:40;99030.72;;;-0.82;67.56
74544;BME280;63016;55.030;38.710;2022-12-18T04:24:05;99029.16;;;-0.84;67.56
74544;BME280;63016;55.030;38.710;2022-12-18T04:26:31;99031.84;;;-0.86;68.28
74544;BME280;63016;55.030;38.710;2022-12-18T04:28:56;99027.88;;;-0.90;67.51
74544;BME280;63016;55.030;38.710;2022-12-18T04:31:21;99037.44;;;-0.92;67.63
74544;BME280;63016;55.030;38.710;2022-12-18T04:33:47;99053.84;;;-0.94;67.68
74544;BME280;63016;55.030;38.710;2022-12-18T04:36:12;99045.34;;;-0.95;68.34
74544;BME280;63016;55.030;38.710;2022-12-18T04:38:37;99049.75;;;-0.97;67.71
74544;BME280;63016;55.030;38.710;2022-12-18T04:41:03;99055.91;;;-0.99;67.65
74544;BME280;63016;55.030;38.710;2022-12-18T04:43:28;99061.97;;;-1.00;67.68
74544;BME280;63016;55.030;38.710;2022-12-18T04:45:53;99062.06;;;-1.02;68.21
74544;BME280;63016;55.030;38.710;2022-12-18T04:48:20;99065.69;;;-1.05;67.76
74544;BME280;63016;55.030;38.710;2022-12-18T04:50:46;99078.59;;;-1.06;67.98
74544;BME280;63016;55.030;38.710;2022-12-18T04:53:11;99084.88;;;-1.10;68.11
74544;BME280;63016;55.030;38.710;2022-12-18T04:55:36;99092.63;;;-1.12;67.70
74544;BME280;63016;55.030;38.710;2022-12-18T04:58:02;99099.63;;;-1.14;68.28
74544;BME280;63016;55.030;38.710;2022-12-18T05:00:27;99104.88;;;-1.15;67.73
74544;BME280;63016;55.030;38.710;2022-12-18T05:02:52;99106.69;;;-1.17;67.71
74544;BME280;63016;55.030;38.710;2022-12-18T05:05:18;99118.81;;;-1.19;67.60
74544;BME280;63016;55.030;38.710;2022-12-18T05:07:43;99127.50;;;-1.22;67.88
74544;BME280;63016;55.030;38.710;2022-12-18T05:10:09;99132.06;;;-1.25;67.91
74544;BME280;63016;55.030;38.710;2022-12-18T05:12:34;99139.94;;;-1.28;67.65
74544;BME280;63016;55.030;38.710;2022-12-18T05:15:19;99138.41;;;-1.31;68.30
74544;BME280;63016;55.030;38.710;2022-12-18T05:17:45;99145.38;;;-1.33;67.53
74544;BME280;63016;55.030;38.710;2022-12-18T05:20:10;99147.25;;;-1.35;67.58
74544;BME280;63016;55.030;38.710;2022-12-18T05:22:35;99161.75;;;-1.36;67.97
74544;BME280;63016;55.030;38.710;2022-12-18T05:25:01;99180.59;;;-1.37;68.29
74544;BME280;63016;55.030;38.710;2022-12-18T05:27:26;99171.28;;;-1.38;68.25
74544;BME280;63016;55.030;38.710;2022-12-18T05:29:51;99172.31;;;-1.40;68.13
74544;BME280;63016;55.030;38.710;2022-12-18T05:32:17;99175.78;;;-1.41;67.81
74544;BME280;63016;55.030;38.710;2022-12-18T05:34:42;99170.09;;;-1.45;67.59
74544;BME280;63016;55.030;38.710;2022-12-18T05:37:07;99174.59;;;-1.48;67.88
74544;BME280;63016;55.030;38.710;2022-12-18T05:39:33;99167.84;;;-1.49;68.24
74544;BME280;63016;55.030;38.710;2022-12-18T05:41:58;99184.91;;;-1.50;68.24
74544;BME280;63016;55.030;38.710;2022-12-18T05:44:24;99191.91;;;-1.52;67.68
74544;BME280;63016;55.030;38.710;2022-12-18T05:46:49;99184.34;;;-1.53;67.97
74544;BME280;63016;55.030;38.710;2022-12-18T05:49:14;99180.25;;;-1.56;68.22
74544;BME280;63016;55.030;38.710;2022-12-18T05:51:40;99187.09;;;-1.57;67.58
74544;BME280;63016;55.030;38.710;2022-12-18T05:54:05;99194.06;;;-1.59;67.83
74544;BME280;63016;55.030;38.710;2022-12-18T05:56:30;99196.81;;;-1.62;67.98
74544;BME280;63016;55.030;38.710;2022-12-18T05:58:56;99191.09;;;-1.65;68.00
74544;BME280;63016;55.030;38.710;2022-12-18T06:01:23;99192.97;;;-1.67;67.84
74544;BME280;63016;55.030;38.710;2022-12-18T06:03:49;99210.13;;;-1.69;67.77
74544;BME280;63016;55.030;38.710;2022-12-18T06:06:15;99211.97;;;-1.71;67.78
74544;BME280;63016;55.030;38.710;2022-12-18T06:08:41;99213.84;;;-1.73;68.00
74544;BME280;63016;55.030;38.710;2022-12-18T06:11:06;99222.53;;;-1.76;67.95
74544;BME280;63016;55.030;38.710;2022-12-18T06:13:31;99243.09;;;-1.77;67.44
74544;BME280;63016;55.030;38.710;2022-12-18T06:15:57;99243.19;;;-1.79;68.24
74544;BME280;63016;55.030;38.710;2022-12-18T06:18:22;99244.03;;;-1.78;68.23
74544;BME280;63016;55.030;38.710;2022-12-18T06:20:57;99248.22;;;-1.77;67.83
74544;BME280;63016;55.030;38.710;2022-12-18T06:23:23;99267.84;;;-1.78;67.76
74544;BME280;63016;55.030;38.710;2022-12-18T06:25:48;99274.78;;;-1.80;67.40
74544;BME280;63016;55.030;38.710;2022-12-18T06:28:13;99277.47;;;-1.82;67.87
74544;BME280;63016;55.030;38.710;2022-12-18T06:30:45;99276.66;;;-1.82;67.91
74544;BME280;63016;55.030;38.710;2022-12-18T06:33:11;99285.25;;;-1.83;67.92
74544;BME280;63016;55.030;38.710;2022-12-18T06:35:36;99299.78;;;-1.84;68.18
74544;BME280;63016;55.030;38.710;2022-12-18T06:38:02;99301.47;;;-1.84;68.09
74544;BME280;63016;55.030;38.710;2022-12-18T06:40:28;99320.31;;;-1.85;67.60
74544;BME280;63016;55.030;38.710;2022-12-18T06:42:53;99327.97;;;-1.85;68.42
74544;BME280;63016;55.030;38.710;2022-12-18T06:45:18;99328.78;;;-1.85;68.19
74544;BME280;63016;55.030;38.710;2022-12-18T06:47:44;99321.84;;;-1.83;68.28
74544;BME280;63016;55.030;38.710;2022-12-18T06:50:10;99337.19;;;-1.83;67.61
74544;BME280;63016;55.030;38.710;2022-12-18T06:52:35;99341.38;;;-1.82;68.07
74544;BME280;63016;55.030;38.710;2022-12-18T06:55:01;99345.69;;;-1.82;68.13
74544;BME280;63016;55.030;38.710;2022-12-18T06:57:27;99315.50;;;-2.02;67.92
74544;BME280;63016;55.030;38.710;2022-12-18T06:59:52;99344.88;;;-1.83;68.29
74544;BME280;63016;55.030;38.710;2022-12-18T07:02:18;99351.72;;;-1.83;67.86
74544;BME280;63016;55.030;38.710;2022-12-18T07:04:43;99342.31;;;-1.83;68.18
74544;BME280;63016;55.030;38.710;2022-12-18T07:07:09;99352.53;;;-1.83;68.08
74544;BME280;63016;55.030;38.710;2022-12-18T07:09:34;99367.78;;;-1.81;67.60
74544;BME280;63016;55.030;38.710;2022-12-18T07:11:59;99376.16;;;-1.79;67.95
74544;BME280;63016;55.030;38.710;2022-12-18T07:14:25;99379.44;;;-1.77;68.27
74544;BME280;63016;55.030;38.710;2022-12-18T07:16:51;99389.56;;;-1.75;68.17
74544;BME280;63016;55.030;38.710;2022-12-18T07:19:17;99395.50;;;-1.75;68.29
74544;BME280;63016;55.030;38.710;2022-12-18T07:21:42;99393.75;;;-1.74;68.36
74544;BME280;63016;55.030;38.710;2022-12-18T07:24:07;99395.41;;;-1.73;68.42
74544;BME280;63016;55.030;38.710;2022-12-18T07:26:33;99396.13;;;-1.71;67.94
74544;BME280;63016;55.030;38.710;2022-12-18T07:28:58;99402.88;;;-1.70;68.37
74544;BME280;63016;55.030;38.710;2022-12-18T07:31:24;99406.97;;;-1.68;68.10
74544;BME280;63016;55.030;38.710;2022-12-18T07:33:50;99412.00;;;-1.66;67.71
74544;BME280;63016;55.030;38.710;2022-12-18T07:36:16;99428.06;;;-1.64;68.29
74544;BME280;63016;55.030;38.710;2022-12-18T07:38:41;99435.75;;;-1.64;68.28
74544;BME280;63016;55.030;38.710;2022-12-18T07:41:10;99450.16;;;-1.63;68.28
74544;BME280;63016;55.030;38.710;2022-12-18T07:43:37;99450.97;;;-1.63;68.16
74544;BME280;63016;55.030;38.710;2022-12-18T07:46:03;99450.16;;;-1.63;67.94
74544;BME280;63016;55.030;38.710;2022-12-18T07:48:29;99457.09;;;-1.65;68.04
74544;BME280;63016;55.030;38.710;2022-12-18T07:50:57;99460.59;;;-1.66;67.76
74544;BME280;63016;55.030;38.710;2022-12-18T07:53:23;99461.41;;;-1.66;68.12
74544;BME280;63016;55.030;38.710;2022-12-18T07:55:48;99465.59;;;-1.65;67.99
74544;BME280;63016;55.030;38.710;2022-12-18T07:58:14;99468.88;;;-1.63;68.28
74544;BME280;63016;55.030;38.710;2022-12-18T08:00:39;99463.66;;;-1.61;68.41
74544;BME280;63016;55.030;38.710;2022-12-18T08:03:04;99466.97;;;-1.59;67.95
74544;BME280;63016;55.030;38.710;2022-12-18T08:05:30;99465.22;;;-1.59;68.48
74544;BME280;63016;55.030;38.710;2022-12-18T08:07:55;99469.41;;;-1.58;68.06
74544;BME280;63016;55.030;38.710;2022-12-18T08:10:21;99466.75;;;-1.56;68.48
74544;BME280;63016;55.030;38.710;2022-12-18T08:12:49;99473.41;;;-1.53;67.93
74544;BME280;63016;55.030;38.710;2022-12-18T08:15:14;99479.34;;;-1.53;68.34
74544;BME280;63016;55.030;38.710;2022-12-18T08:17:39;99473.31;;;-1.52;68.17
74544;BME280;63016;55.030;38.710;2022-12-18T08:20:05;99489.38;;;-1.50;68.10
74544;BME280;63016;55.030;38.710;2022-12-18T08:22:30;99493.59;;;-1.49;68.22
74544;BME280;63016;55.030;38.710;2022-12-18T08:24:56;99493.47;;;-1.47;68.03
74544;BME280;63016;55.030;38.710;2022-12-18T08:27:21;99489.06;;;-1.45;68.46
74544;BME280;63016;55.030;38.710;2022-12-18T08:29:47;99500.84;;;-1.43;68.62
74544;BME280;63016;55.030;38.710;2022-12-18T08:32:12;99516.84;;;-1.39;68.26
74544;BME280;63016;55.030;38.710;2022-12-18T08:34:37;99516.84;;;-1.39;68.11
74544;BME280;63016;55.030;38.710;2022-12-18T08:37:03;99522.56;;;-1.36;68.05
74544;BME280;63016;55.030;38.710;2022-12-18T08:39:28;99529.41;;;-1.36;68.34
74544;BME280;63016;55.030;38.710;2022-12-18T08:41:54;99540.47;;;-1.36;68.62
74544;BME280;63016;55.030;38.710;2022-12-18T08:44:38;99552.38;;;-1.35;67.95
74544;BME280;63016;55.030;38.710;2022-12-18T08:47:03;99545.41;;;-1.33;67.95
74544;BME280;63016;55.030;38.710;2022-12-18T08:49:29;99550.53;;;-1.33;67.95
74544;BME280;63016;55.030;38.710;2022-12-18T08:51:55;99556.47;;;-1.32;67.72
74544;BME280;63016;55.030;38.710;2022-12-18T08:54:22;99552.25;;;-1.33;68.29
74544;BME280;63016;55.030;38.710;2022-12-18T08:56:47;99553.19;;;-1.34;68.21
74544;BME280;63016;55.030;38.710;2022-12-18T08:59:12;99563.44;;;-1.34;67.72
74544;BME280;63016;55.030;38.710;2022-12-18T09:01:38;99552.38;;;-1.35;68.29
74544;BME280;63016;55.030;38.710;2022-12-18T09:04:03;99554.94;;;-1.35;68.73
74544;BME280;63016;55.030;38.710;2022-12-18T09:06:29;99557.38;;;-1.33;67.89
74544;BME280;63016;55.030;38.710;2022-12-18T09:08:54;99570.06;;;-1.32;67.57
74544;BME280;63016;55.030;38.710;2022-12-18T09:11:20;99566.81;;;-1.34;68.23
74544;BME280;63016;55.030;38.710;2022-12-18T09:13:46;99562.63;;;-1.35;68.16
74544;BME280;63016;55.030;38.710;2022-12-18T09:16:11;99577.16;;;-1.35;67.97
74544;BME280;63016;55.030;38.710;2022-12-18T09:18:37;99589.03;;;-1.34;68.09
74544;BME280;63016;55.030;38.710;2022-12-18T09:21:09;99603.56;;;-1.35;68.65
74544;BME280;63016;55.030;38.710;2022-12-18T09:23:35;99594.97;;;-1.34;68.21
74544;BME280;63016;55.030;38.710;2022-12-18T09:26:00;99611.13;;;-1.33;68.02
74544;BME280;63016;55.030;38.710;2022-12-18T09:28:25;99607.75;;;-1.34;67.88
74544;BME280;63016;55.030;38.710;2022-12-18T09:30:51;99610.31;;;-1.34;67.94
74544;BME280;63016;55.030;38.710;2022-12-18T09:33:16;99605.19;;;-1.34;67.72
74544;BME280;63016;55.030;38.710;2022-12-18T09:35:42;99618.91;;;-1.35;67.61
74544;BME280;63016;55.030;38.710;2022-12-18T09:38:09;99627.47;;;-1.36;67.73
74544;BME280;63016;55.030;38.710;2022-12-18T09:40:41;99630.03;;;-1.36;68.29
74544;BME280;63016;55.030;38.710;2022-12-18T09:43:09;99639.56;;;-1.38;67.94
74544;BME280;63016;55.030;38.710;2022-12-18T09:45:40;99649.81;;;-1.38;67.53
74544;BME280;63016;55.030;38.710;2022-12-18T09:48:09;99655.03;;;-1.39;67.61
74544;BME280;63016;55.030;38.710;2022-12-18T09:50:37;99661.03;;;-1.40;67.81
74544;BME280;63016;55.030;38.710;2022-12-18T09:53:06;99661.03;;;-1.40;67.73
74544;BME280;63016;55.030;38.710;2022-12-18T09:55:36;99657.59;;;-1.39;68.34
74544;BME280;63016;55.030;38.710;2022-12-18T09:58:06;99663.59;;;-1.40;68.23
74544;BME280;63016;55.030;38.710;2022-12-18T10:00:37;99663.69;;;-1.42;67.73
74544;BME280;63016;55.030;38.710;2022-12-18T10:03:09;99667.06;;;-1.41;68.25
74544;BME280;63016;55.030;38.710;2022-12-18T10:06:01;99668.81;;;-1.42;68.49
74544;BME280;63016;55.030;38.710;2022-12-18T10:13:52;99665.09;;;-1.50;68.36
74544;BME280;63016;55.030;38.710;2022-12-18T10:16:22;99669.38;;;-1.51;68.40
74544;BME280;63016;55.030;38.710;2022-12-18T10:21:28;99674.50;;;-1.51;68.20
74544;BME280;63016;55.030;38.710;2022-12-18T10:26:27;99682.28;;;-1.52;67.57
74544;BME280;63016;55.030;38.710;2022-12-18T10:28:52;99689.13;;;-1.53;68.33
74544;BME280;63016;55.030;38.710;2022-12-18T10:31:19;99690.06;;;-1.54;67.85
74544;BME280;63016;55.030;38.710;2022-12-18T10:33:45;99691.81;;;-1.54;68.15
74544;BME280;63016;55.030;38.710;2022-12-18T10:36:10;99707.16;;;-1.54;67.95
74544;BME280;63016;55.030;38.710;2022-12-18T10:38:36;99713.16;;;-1.56;67.45
74544;BME280;63016;55.030;38.710;2022-12-18T10:41:02;99721.84;;;-1.58;67.89
74544;BME280;63016;55.030;38.710;2022-12-18T10:43:32;99716.00;;;-1.60;67.13
74544;BME280;63016;55.030;38.710;2022-12-18T10:48:33;99732.47;;;-1.64;67.77
74544;BME280;63016;55.030;38.710;2022-12-18T10:50:59;99736.84;;;-1.66;68.15
74544;BME280;63016;55.030;38.710;2022-12-18T10:53:28;99739.38;;;-1.66;68.19
74544;BME280;63016;55.030;38.710;2022-12-18T10:55:55;99750.53;;;-1.67;68.08
74544;BME280;63016;55.030;38.710;2022-12-18T11:03:36;99742.97;;;-1.69;67.56
74544;BME280;63016;55.030;38.710;2022-12-18T11:06:06;99736.19;;;-1.70;68.35
74544;BME280;63016;55.030;38.710;2022-12-18T11:08:31;99739.56;;;-1.69;68.29
74544;BME280;63016;55.030;38.710;2022-12-18T11:10:57;99742.88;;;-1.67;68.15
74544;BME280;63016;55.030;38.710;2022-12-18T11:13:23;99741.28;;;-1.70;68.23
74544;BME280;63016;55.030;38.710;2022-12-18T11:15:50;99737.00;;;-1.69;68.13
74544;BME280;63016;55.030;38.710;2022-12-18T11:20:51;99742.97;;;-1.69;67.39
74544;BME280;63016;55.030;38.710;2022-12-18T11:23:16;99745.59;;;-1.70;67.60
74544;BME280;63016;55.030;38.710;2022-12-18T11:25:59;99745.59;;;-1.70;67.74
74544;BME280;63016;55.030;38.710;2022-12-18T11:31:40;99757.47;;;-1.69;68.33
74544;BME280;63016;55.030;38.710;2022-12-18T11:33:41;99773.72;;;-1.70;68.25
74544;BME280;63016;55.030;38.710;2022-12-18T11:36:08;99779.66;;;-1.70;68.18
74544;BME280;63016;55.030;38.710;2022-12-18T11:38:46;99787.44;;;-1.71;68.30
74544;BME280;63016;55.030;38.710;2022-12-18T11:43:52;99796.75;;;-1.70;67.81
74544;BME280;63016;55.030;38.710;2022-12-18T11:48:58;99799.50;;;-1.73;67.92
74544;BME280;63016;55.030;38.710;2022-12-18T11:54:18;99815.75;;;-1.74;68.22
74544;BME280;63016;55.030;38.710;2022-12-18T11:56:58;99823.41;;;-1.74;67.55
74544;BME280;63016;55.030;38.710;2022-12-18T12:02:17;99827.00;;;-1.77;68.36
74544;BME280;63016;55.030;38.710;2022-12-18T12:07:36;99835.47;;;-1.76;68.21
74544;BME280;63016;55.030;38.710;2022-12-18T12:15:50;99846.69;;;-1.79;68.04
74544;BME280;63016;55.030;38.710;2022-12-18T12:25:59;99847.81;;;-1.83;67.39
74544;BME280;63016;55.030;38.710;2022-12-18T12:36:22;99859.19;;;-1.89;68.03
74544;BME280;63016;55.030;38.710;2022-12-18T12:38:59;99860.19;;;-1.91;67.57
74544;BME280;63016;55.030;38.710;2022-12-18T12:41:27;99867.88;;;-1.91;67.66
74544;BME280;63016;55.030;38.710;2022-12-18T12:44:24;99873.97;;;-1.94;67.42
74544;BME280;63016;55.030;38.710;2022-12-18T12:46:51;99874.06;;;-1.95;67.81
74544;BME280;63016;55.030;38.710;2022-12-18T12:49:18;99873.34;;;-1.97;67.81
74544;BME280;63016;55.030;38.710;2022-12-18T12:51:45;99878.53;;;-1.99;67.40
74544;BME280;63016;55.030;38.710;2022-12-18T12:54:16;99883.63;;;-1.99;67.74
74544;BME280;63016;55.030;38.710;2022-12-18T12:56:50;99891.41;;;-2.00;67.30
74544;BME280;63016;55.030;38.710;2022-12-18T12:59:37;99903.34;;;-2.01;67.98
74544;BME280;63016;55.030;38.710;2022-12-18T13:04:50;99914.56;;;-2.03;67.47
74544;BME280;63016;55.030;38.710;2022-12-18T13:12:28;99927.59;;;-2.08;67.62
74544;BME280;63016;55.030;38.710;2022-12-18T13:15:46;99934.53;;;-2.10;68.02
74544;BME280;63016;55.030;38.710;2022-12-18T13:25:56;99949.06;;;-2.11;67.51
74544;BME280;63016;55.030;38.710;2022-12-18T13:31:05;99957.66;;;-2.12;67.76
74544;BME280;63016;55.030;38.710;2022-12-18T13:33:46;99963.56;;;-2.11;67.98
74544;BME280;63016;55.030;38.710;2022-12-18T13:41:53;99976.50;;;-2.14;67.66
74544;BME280;63016;55.030;38.710;2022-12-18T13:44:55;99991.13;;;-2.16;67.16
74544;BME280;63016;55.030;38.710;2022-12-18T13:49:52;100000.59;;;-2.18;67.38
74544;BME280;63016;55.030;38.710;2022-12-18T13:52:27;100005.69;;;-2.18;67.76
74544;BME280;63016;55.030;38.710;2022-12-18T13:54:54;100010.81;;;-2.18;67.60
74544;BME280;63016;55.030;38.710;2022-12-18T13:57:27;100014.19;;;-2.18;67.41
74544;BME280;63016;55.030;38.710;2022-12-18T13:59:53;100021.03;;;-2.18;67.75
74544;BME280;63016;55.030;38.710;2022-12-18T14:02:23;100032.94;;;-2.17;67.88
74544;BME280;63016;55.030;38.710;2022-12-18T14:04:49;100031.25;;;-2.18;67.79
74544;BME280;63016;55.030;38.710;2022-12-18T14:07:19;100041.47;;;-2.18;67.58
74544;BME280;63016;55.030;38.710;2022-12-18T14:09:47;100048.31;;;-2.19;67.54
74544;BME280;63016;55.030;38.710;2022-12-18T14:12:18;100038.03;;;-2.17;67.92
74544;BME280;63016;55.030;38.710;2022-12-18T14:15:05;100045.75;;;-2.19;68.12
74544;BME280;63016;55.030;38.710;2022-12-18T14:17:31;100055.06;;;-2.18;67.37
74544;BME280;63016;55.030;38.710;2022-12-18T14:19:57;100060.13;;;-2.16;67.56
74544;BME280;63016;55.030;38.710;2022-12-18T14:22:25;100058.41;;;-2.16;67.47
74544;BME280;63016;55.030;38.710;2022-12-18T14:25:06;100061.78;;;-2.15;67.68
74544;BME280;63016;55.030;38.710;2022-12-18T14:27:36;100066.78;;;-2.14;68.10
74544;BME280;63016;55.030;38.710;2022-12-18T14:30:15;100071.03;;;-2.13;67.79
74544;BME280;63016;55.030;38.710;2022-12-18T14:32:42;100078.75;;;-2.14;67.23
74544;BME280;63016;55.030;38.710;2022-12-18T14:35:12;100082.22;;;-2.15;67.81
74544;BME280;63016;55.030;38.710;2022-12-18T14:37:38;100085.69;;;-2.16;67.89
74544;BME280;63016;55.030;38.710;2022-12-18T14:40:03;100084.06;;;-2.17;67.41